Time;durP1;ratioP1;P1;durP2;ratioP2;P2;SDS_P1;SDS_P2;PMS_P1;PMS_P2;Temp;Humidity;BMP_temperature;BMP_pressure;BME280_temperature;BME280_humidity;BME280_pressure;Samples;Min_cycle;Max_cycle;Signal;HPM_P1;HPM_P2
2021/05/24 00:00:39;;;;;;;3.98;2.50;;;;;;;16.82;51.83;100166.09;1742610;82;20999;-77
2021/05/24 00:03:06;;;;;;;5.42;2.42;;;;;;;16.85;51.93;100171.08;1743971;80;20986;-78
2021/05/24 00:05:35;;;;;;;5.10;2.22;;;;;;;16.87;52.00;100166.41;1740465;82;21095;-77
2021/05/24 00:08:02;;;;;;;5.83;2.20;;;;;;;16.90;52.12;100165.27;1744520;82;21038;-76
2021/05/24 00:10:31;;;;;;;5.58;2.20;;;;;;;16.93;52.07;100163.58;1742080;80;21784;-77
2021/05/24 00:13:02;;;;;;;4.35;2.00;;;;;;;16.94;52.25;100163.91;1719634;83;21024;-76
2021/05/24 00:15:48;;;;;;;3.53;2.20;;;;;;;16.95;52.34;100164.24;1722865;82;21047;-77
2021/05/24 00:18:15;;;;;;;5.87;1.90;;;;;;;16.96;52.42;100161.07;1683821;82;21079;-77
2021/05/24 00:20:53;;;;;;;5.00;1.75;;;;;;;16.98;52.54;100157.73;1728619;80;21583;-77
2021/05/24 00:23:20;;;;;;;7.78;1.60;;;;;;;16.99;52.72;100152.75;1744125;82;21772;-77
2021/05/24 00:25:48;;;;;;;3.70;1.90;;;;;;;17.00;52.61;100157.91;1744392;82;21121;-77
2021/05/24 00:28:15;;;;;;;4.37;1.77;;;;;;;17.00;52.68;100163.25;1739609;82;20982;-77
2021/05/24 00:30:45;;;;;;;3.60;1.65;;;;;;;17.03;52.58;100163.41;1743966;82;21554;-77
2021/05/24 00:33:12;;;;;;;4.85;1.80;;;;;;;17.03;52.68;100164.24;1746269;80;21080;-77
2021/05/24 00:35:41;;;;;;;4.58;1.62;;;;;;;17.03;53.04;100163.41;1744601;82;21111;-77
2021/05/24 00:38:09;;;;;;;4.45;1.90;;;;;;;17.03;53.13;100188.25;1743991;80;21492;-77
2021/05/24 00:40:38;;;;;;;4.60;2.45;;;;;;;17.05;53.05;100245.45;1745454;80;21072;-78
2021/05/24 00:43:06;;;;;;;8.43;3.75;;;;;;;17.01;52.97;100250.30;1747168;80;21615;-79
2021/05/24 00:45:33;;;;;;;8.10;4.33;;;;;;;16.91;52.12;100258.13;1722325;82;21088;-78
2021/05/24 00:47:59;;;;;;;11.05;5.85;;;;;;;16.68;51.60;100241.41;1747431;81;22198;-77
2021/05/24 00:50:25;;;;;;;15.53;5.67;;;;;;;16.51;51.76;100244.53;1746916;80;21065;-77
2021/05/24 00:52:52;;;;;;;6.80;4.08;;;;;;;16.47;52.68;100277.83;1747385;80;21041;-77
2021/05/24 00:55:18;;;;;;;6.03;3.60;;;;;;;16.39;53.73;100272.97;1747244;82;21038;-77
2021/05/24 00:57:45;;;;;;;6.12;3.40;;;;;;;16.23;54.30;100279.09;1712031;83;21056;-78
2021/05/24 01:00:40;;;;;;;6.35;3.05;;;;;;;16.09;54.95;100265.87;1702023;84;21888;-77
2021/05/24 01:03:08;;;;;;;8.20;3.30;;;;;;;15.97;55.44;100269.81;1676941;84;21072;-77
2021/05/24 01:08:09;;;;;;;3.83;2.40;;;;;;;15.82;56.52;100294.02;1675788;84;21544;-78
2021/05/24 01:10:36;;;;;;;5.72;3.00;;;;;;;15.75;57.12;100295.17;1688096;83;21004;-77
2021/05/24 01:13:06;;;;;;;7.78;3.15;;;;;;;15.64;57.60;100300.27;1701181;82;21784;-77
2021/05/24 01:15:34;;;;;;;7.60;3.17;;;;;;;15.54;58.59;100305.28;1702152;84;21575;-77
2021/05/24 01:18:00;;;;;;;5.33;3.17;;;;;;;15.39;59.77;100293.88;1702332;84;21026;-77
2021/05/24 01:20:27;;;;;;;6.62;3.27;;;;;;;15.28;61.00;100310.59;1702610;83;21158;-77
2021/05/24 01:23:18;;;;;;;7.58;4.50;;;;;;;15.11;61.39;100318.42;1702524;84;20970;-77
2021/05/24 01:25:25;;;;;;;6.35;4.25;;;;;;;15.00;62.18;100322.64;1677264;85;21807;-77
2021/05/24 01:27:52;;;;;;;5.42;3.10;;;;;;;14.87;62.77;100321.70;1712000;83;21107;-77
2021/05/24 01:30:19;;;;;;;6.10;3.33;;;;;;;14.78;63.05;100327.91;1704661;82;21483;-77
2021/05/24 01:32:48;;;;;;;7.05;4.08;;;;;;;14.74;63.41;100320.38;1693440;82;21034;-77
2021/05/24 01:35:15;;;;;;;10.80;5.12;;;;;;;14.69;63.92;100318.17;1742121;82;21576;-78
2021/05/24 01:37:41;;;;;;;12.65;6.58;;;;;;;14.64;64.60;100317.77;1744155;82;21735;-77
2021/05/24 01:40:09;;;;;;;12.25;6.65;;;;;;;14.59;65.34;100314.74;1744213;80;21018;-78
2021/05/24 01:42:35;;;;;;;8.25;5.70;;;;;;;14.51;65.88;100309.33;1744717;82;20972;-78
2021/05/24 01:45:02;;;;;;;6.55;3.95;;;;;;;14.45;66.54;100302.77;1742811;80;21109;-77
2021/05/24 01:47:29;;;;;;;5.87;3.92;;;;;;;14.40;66.96;100302.36;1743112;81;20994;-78
2021/05/24 01:49:55;;;;;;;8.50;3.50;;;;;;;14.35;67.25;100293.98;1747061;81;22168;-78
2021/05/24 01:52:21;;;;;;;8.10;3.15;;;;;;;14.27;67.68;100282.77;1748142;80;21090;-78
2021/05/24 01:54:49;;;;;;;9.40;3.50;;;;;;;14.23;67.99;100281.40;1747657;82;20935;-77
2021/05/24 01:57:16;;;;;;;5.67;3.22;;;;;;;14.18;68.37;100272.19;1753136;80;20978;-77
2021/05/24 01:59:42;;;;;;;6.55;2.85;;;;;;;14.16;68.84;100270.17;1754411;80;21042;-77
2021/05/24 02:02:09;;;;;;;4.12;2.47;;;;;;;14.10;69.33;100267.63;1736417;80;21763;-77
2021/05/24 02:04:35;;;;;;;7.15;2.60;;;;;;;14.01;69.65;100261.37;1740803;82;21002;-77
2021/05/24 02:07:02;;;;;;;6.33;2.22;;;;;;;13.92;70.25;100258.27;1744597;82;21022;-77
2021/05/24 02:09:29;;;;;;;5.70;2.45;;;;;;;13.84;70.85;100258.66;1744652;82;20999;-77
2021/05/24 02:11:58;;;;;;;5.40;2.52;;;;;;;13.74;71.26;100258.19;1744662;80;21006;-77
2021/05/24 02:14:26;;;;;;;8.20;2.47;;;;;;;13.68;71.60;100259.25;1744441;82;21462;-77
2021/05/24 02:16:52;;;;;;;5.58;2.27;;;;;;;13.62;72.03;100262.50;1744458;81;21575;-77
2021/05/24 02:19:19;;;;;;;4.92;2.42;;;;;;;13.56;72.31;100263.06;1744633;82;20970;-77
2021/05/24 02:21:47;;;;;;;5.20;2.27;;;;;;;13.52;72.75;100263.85;1741546;80;21398;-77
2021/05/24 02:24:14;;;;;;;4.92;2.70;;;;;;;13.49;72.97;100264.61;1744622;82;21062;-76
2021/05/24 02:26:43;;;;;;;3.35;2.70;;;;;;;13.43;73.22;100267.36;1742434;82;21688;-77
2021/05/24 02:29:09;;;;;;;6.28;2.70;;;;;;;13.42;73.32;100269.18;1741978;82;21503;-77
2021/05/24 02:31:36;;;;;;;6.53;2.60;;;;;;;13.42;73.48;100273.66;1744259;81;20971;-77
2021/05/24 02:34:04;;;;;;;8.58;2.62;;;;;;;13.38;73.55;100273.08;1748481;82;21086;-77
2021/05/24 02:36:31;;;;;;;4.28;2.42;;;;;;;13.36;73.87;100260.95;1748389;80;21086;-77
2021/05/24 02:38:58;;;;;;;8.75;2.87;;;;;;;13.34;74.14;100264.23;1746248;82;22402;-75
2021/05/24 02:41:25;;;;;;;5.80;3.20;;;;;;;13.32;74.43;100259.08;1748226;82;21066;-77
2021/05/24 02:43:51;;;;;;;6.17;3.22;;;;;;;13.30;74.58;100257.03;1747408;80;21089;-77
2021/05/24 02:46:17;;;;;;;6.42;3.10;;;;;;;13.27;74.81;100241.41;1750059;82;21014;-76
2021/05/24 02:48:44;;;;;;;7.12;3.02;;;;;;;13.23;74.99;100243.18;1749823;80;21022;-77
2021/05/24 02:51:10;;;;;;;7.20;3.47;;;;;;;13.17;75.15;100240.56;1750110;82;22281;-77
2021/05/24 02:53:39;;;;;;;7.47;3.40;;;;;;;13.16;75.44;100230.93;1749708;82;21023;-77
2021/05/24 02:56:05;;;;;;;6.03;3.20;;;;;;;13.07;75.82;100212.73;1746706;82;21572;-77
2021/05/24 02:58:32;;;;;;;6.25;2.62;;;;;;;13.01;76.12;100207.14;1743763;81;21058;-77
2021/05/24 03:00:59;;;;;;;4.60;3.50;;;;;;;12.94;76.37;100209.55;1748390;82;21021;-77
2021/05/24 03:03:28;;;;;;;8.30;3.85;;;;;;;12.86;76.56;100216.87;1750064;82;21786;-76
2021/05/24 03:05:54;;;;;;;9.08;3.62;;;;;;;12.81;76.77;100227.53;1749993;82;21026;-76
2021/05/24 03:08:22;;;;;;;8.43;4.05;;;;;;;12.80;76.92;100261.15;1749998;82;21571;-76
2021/05/24 03:10:49;;;;;;;7.37;4.20;;;;;;;12.80;77.13;100239.95;1749253;82;21081;-77
2021/05/24 03:13:15;;;;;;;7.80;4.40;;;;;;;12.80;77.50;100212.11;1749580;82;21066;-76
2021/05/24 03:15:41;;;;;;;7.87;3.83;;;;;;;12.79;77.88;100185.76;1750066;82;21750;-76
2021/05/24 03:18:08;;;;;;;7.83;4.90;;;;;;;12.75;78.27;100170.63;1750007;82;21014;-76
2021/05/24 03:20:34;;;;;;;8.95;4.87;;;;;;;12.73;78.80;100163.29;1746237;82;21074;-75
2021/05/24 03:23:01;;;;;;;8.33;4.37;;;;;;;12.73;79.08;100163.78;1744861;82;21089;-75
2021/05/24 03:25:28;;;;;;;6.22;3.60;;;;;;;12.74;79.34;100147.77;1748471;82;21026;-76
2021/05/24 03:27:54;;;;;;;7.28;3.75;;;;;;;12.76;79.51;100151.59;1745594;82;21661;-76
2021/05/24 03:30:21;;;;;;;8.03;3.65;;;;;;;12.81;79.69;100148.02;1749647;82;21081;-76
2021/05/24 03:32:47;;;;;;;5.25;3.52;;;;;;;12.81;79.80;100150.17;1749697;82;20964;-76
2021/05/24 03:35:13;;;;;;;5.62;3.35;;;;;;;12.82;79.79;100154.49;1711897;83;21073;-77
2021/05/24 03:37:40;;;;;;;4.00;2.67;;;;;;;12.86;79.80;100147.95;1744028;82;20958;-77
2021/05/24 03:40:08;;;;;;;6.65;3.22;;;;;;;12.90;79.86;100151.14;1711736;83;21759;-77
2021/05/24 03:42:34;;;;;;;4.35;3.08;;;;;;;12.90;79.87;100145.84;1709858;83;21078;-76
2021/05/24 03:45:06;;;;;;;6.60;3.20;;;;;;;12.90;79.90;100146.67;1741580;80;21030;-88
2021/05/24 03:47:32;;;;;;;4.60;3.05;;;;;;;12.92;79.89;100150.99;1743495;82;21061;-77
2021/05/24 03:49:59;;;;;;;5.05;3.12;;;;;;;12.90;79.82;100144.52;1744525;82;20950;-78
2021/05/24 03:52:27;;;;;;;5.17;3.45;;;;;;;12.88;79.83;100141.17;1743744;80;22173;-76
2021/05/24 03:54:53;;;;;;;4.37;2.92;;;;;;;12.88;79.84;100137.20;1738970;82;21049;-77
2021/05/24 03:57:20;;;;;;;4.67;2.77;;;;;;;12.86;79.95;100126.74;1738451;82;21001;-77
2021/05/24 03:59:46;;;;;;;4.47;2.70;;;;;;;12.82;79.97;100127.16;1681891;83;21002;-76
2021/05/24 04:02:13;;;;;;;7.20;2.92;;;;;;;12.78;80.04;100121.80;1715492;83;21090;-75
2021/05/24 04:04:40;;;;;;;4.90;2.70;;;;;;;12.75;80.13;100123.42;1714550;83;22313;-76
2021/05/24 04:07:11;;;;;;;5.17;3.10;;;;;;;12.72;80.21;100124.52;1715706;83;20973;-76
2021/05/24 04:09:37;;;;;;;6.60;3.05;;;;;;;12.71;80.30;100130.80;1716222;83;21034;-86
2021/05/24 04:12:04;;;;;;;4.28;3.27;;;;;;;12.69;80.38;100115.53;1716056;83;21050;-76
2021/05/24 04:14:32;;;;;;;5.00;3.37;;;;;;;12.67;80.49;100123.29;1715424;83;21062;-76
2021/05/24 04:17:01;;;;;;;5.60;3.50;;;;;;;12.67;80.71;100119.31;1715610;83;21817;-76
2021/05/24 04:19:28;;;;;;;4.47;3.22;;;;;;;12.63;80.89;100126.69;1714324;82;21046;-77
2021/05/24 04:21:55;;;;;;;5.17;3.45;;;;;;;12.65;81.00;100118.63;1710997;82;21156;-79
2021/05/24 04:24:22;;;;;;;5.70;3.45;;;;;;;12.65;81.18;100123.44;1715946;82;21121;-76
2021/05/24 04:26:48;;;;;;;4.08;3.30;;;;;;;12.63;81.32;100125.86;1711739;82;21648;-75
2021/05/24 04:29:14;;;;;;;4.83;3.30;;;;;;;12.66;81.39;100124.27;1715989;83;21807;-74
2021/05/24 04:31:41;;;;;;;4.65;3.25;;;;;;;12.72;81.46;100133.80;1715422;83;21129;-72
2021/05/24 04:34:08;;;;;;;5.30;3.20;;;;;;;12.75;81.48;100131.38;1715705;83;20991;-81
2021/05/24 04:36:34;;;;;;;6.22;3.00;;;;;;;12.78;81.51;100134.56;1719718;83;21462;-77
2021/05/24 04:39:00;;;;;;;4.37;3.05;;;;;;;12.82;81.59;100141.73;1747878;82;21511;-78
2021/05/24 04:41:27;;;;;;;6.05;3.30;;;;;;;12.80;81.64;100129.95;1743528;82;21722;-82
2021/05/24 04:43:57;;;;;;;5.80;3.27;;;;;;;12.80;81.68;100132.60;1743108;82;21111;-81
2021/05/24 04:46:21;;;;;;;5.10;3.33;;;;;;;12.83;81.80;100132.80;1743933;80;21069;-81
2021/05/24 04:48:48;;;;;;;3.52;2.70;;;;;;;12.82;81.79;100137.76;1744154;80;20977;-81
2021/05/24 04:51:14;;;;;;;5.25;3.00;;;;;;;12.81;81.86;100134.77;1744479;80;21056;-81
2021/05/24 04:53:41;;;;;;;4.12;2.83;;;;;;;12.83;81.91;100132.80;1744274;81;21691;-81
2021/05/24 04:56:07;;;;;;;6.30;3.10;;;;;;;12.83;81.97;100126.17;1737382;81;21131;-81
2021/05/24 04:58:34;;;;;;;3.67;2.90;;;;;;;12.82;81.97;100128.48;1717978;81;21506;-81
2021/05/24 05:01:01;;;;;;;5.75;2.87;;;;;;;12.85;82.04;100128.22;1743130;80;21611;-81
2021/05/24 05:03:28;;;;;;;3.20;2.72;;;;;;;12.86;82.02;100128.56;1744490;81;21627;-81
2021/05/24 05:05:54;;;;;;;3.80;2.67;;;;;;;12.86;82.00;100124.59;1744801;80;22192;-81
2021/05/24 05:08:21;;;;;;;5.15;2.70;;;;;;;12.87;81.95;100131.06;1744854;82;21062;-81
2021/05/24 05:10:48;;;;;;;4.37;2.70;;;;;;;12.90;81.89;100127.28;1744359;82;21049;-81
2021/05/24 05:13:15;;;;;;;4.80;2.62;;;;;;;12.92;81.90;100119.19;1734514;80;21574;-81
2021/05/24 05:15:43;;;;;;;3.92;2.80;;;;;;;12.97;81.84;100120.93;1716636;83;21533;-81
2021/05/24 05:18:10;;;;;;;3.92;2.47;;;;;;;12.98;81.83;100115.48;1720739;82;21725;-81
2021/05/24 05:20:38;;;;;;;3.22;2.30;;;;;;;13.01;81.76;100124.95;1726173;83;20967;-82
2021/05/24 05:23:04;;;;;;;3.85;2.42;;;;;;;13.01;81.69;100131.09;1726374;83;21034;-82
2021/05/24 05:25:30;;;;;;;4.40;2.40;;;;;;;13.01;81.58;100136.89;1725409;83;21049;-80
2021/05/24 05:27:57;;;;;;;4.05;2.40;;;;;;;13.04;81.52;100145.91;1721975;81;21006;-81
2021/05/24 05:30:24;;;;;;;3.55;2.40;;;;;;;13.07;81.46;100152.23;1726162;83;22185;-81
2021/05/24 05:32:50;;;;;;;4.03;2.20;;;;;;;13.09;81.34;100152.92;1726261;83;20999;-81
2021/05/24 05:35:18;;;;;;;5.72;2.35;;;;;;;13.09;81.24;100152.43;1726388;82;21026;-81
2021/05/24 05:37:48;;;;;;;3.62;2.30;;;;;;;13.10;81.10;100162.05;1724405;82;21049;-81
2021/05/24 05:40:17;;;;;;;4.33;2.60;;;;;;;13.09;81.03;100160.38;1744548;81;21636;-82
2021/05/24 05:42:45;;;;;;;5.10;2.30;;;;;;;13.08;80.91;100153.41;1718277;83;21785;-82
2021/05/24 05:45:13;;;;;;;5.08;2.47;;;;;;;13.09;80.81;100151.59;1700715;82;21630;-81
2021/05/24 05:47:39;;;;;;;4.60;2.58;;;;;;;13.05;80.70;100140.45;1714548;83;21133;-80
2021/05/24 05:50:08;;;;;;;4.42;2.40;;;;;;;13.05;80.55;100136.97;1744789;80;21424;-81
2021/05/24 05:52:35;;;;;;;4.53;2.95;;;;;;;13.01;80.38;100137.72;1744703;82;21031;-82
2021/05/24 05:55:07;;;;;;;4.25;2.62;;;;;;;13.00;80.27;100124.12;1739776;80;21819;-82
2021/05/24 05:57:33;;;;;;;4.72;2.87;;;;;;;12.97;80.26;100115.63;1712885;82;21564;-81
2021/05/24 06:00:00;;;;;;;3.17;2.85;;;;;;;12.91;80.17;100119.67;1744679;82;20978;-82
2021/05/24 06:02:27;;;;;;;3.85;2.75;;;;;;;12.88;80.15;100129.25;1744512;81;20979;-81
2021/05/24 06:04:53;;;;;;;3.42;2.75;;;;;;;12.85;79.98;100131.70;1744561;82;21057;-82
2021/05/24 06:07:19;;;;;;;4.67;3.00;;;;;;;12.82;79.97;100141.24;1744565;82;21751;-82
2021/05/24 06:09:46;;;;;;;4.83;2.60;;;;;;;12.79;80.00;100139.38;1744381;82;21491;-80
2021/05/24 06:12:13;;;;;;;4.67;2.75;;;;;;;12.75;80.04;100154.73;1744633;82;21060;-82
2021/05/24 06:14:40;;;;;;;3.60;2.83;;;;;;;12.75;80.05;100153.41;1744600;81;21009;-82
2021/05/24 06:17:06;;;;;;;4.22;2.75;;;;;;;12.76;80.03;100155.57;1744527;81;20953;-82
2021/05/24 06:19:34;;;;;;;4.33;2.92;;;;;;;12.79;80.05;100159.25;1737784;81;21920;-80
2021/05/24 06:22:00;;;;;;;3.85;2.80;;;;;;;12.80;79.96;100164.41;1688188;83;21484;-82
2021/05/24 06:24:27;;;;;;;5.42;2.70;;;;;;;12.82;79.77;100166.42;1704683;82;20973;-81
2021/05/24 06:26:53;;;;;;;4.47;2.60;;;;;;;12.79;79.56;100157.44;1728438;82;21028;-82
2021/05/24 06:29:24;;;;;;;5.80;2.90;;;;;;;12.76;79.64;100144.97;1703520;82;21002;-83
2021/05/24 06:31:55;;;;;;;4.58;2.80;;;;;;;12.72;79.83;100129.82;1727384;81;21768;-81
2021/05/24 06:34:21;;;;;;;3.62;2.65;;;;;;;12.70;80.23;100119.02;1743865;81;21094;-82
2021/05/24 06:36:48;;;;;;;6.45;2.98;;;;;;;12.64;80.35;100120.90;1742342;81;20974;-82
2021/05/24 06:39:16;;;;;;;6.80;3.00;;;;;;;12.60;80.65;100099.16;1742496;82;21056;-81
2021/05/24 06:41:42;;;;;;;4.22;2.45;;;;;;;12.54;80.81;100101.04;1742767;82;21587;-80
2021/05/24 06:44:09;;;;;;;5.20;2.70;;;;;;;12.53;80.95;100103.34;1740897;82;22352;-81
2021/05/24 06:46:35;;;;;;;3.80;2.75;;;;;;;12.55;80.94;100105.39;1742622;82;21588;-81
2021/05/24 06:49:02;;;;;;;5.22;2.80;;;;;;;12.59;80.96;100118.20;1717579;82;21606;-80
2021/05/24 06:51:29;;;;;;;4.90;2.60;;;;;;;12.64;80.90;100128.84;1740578;81;21045;-81
2021/05/24 06:53:55;;;;;;;4.55;2.95;;;;;;;12.68;80.95;100130.26;1742664;82;21559;-81
2021/05/24 06:56:22;;;;;;;6.70;2.60;;;;;;;12.71;81.01;100129.48;1722765;83;22617;-81
2021/05/24 06:58:48;;;;;;;5.47;2.95;;;;;;;12.78;81.06;100127.11;1717150;82;21006;-81
2021/05/24 07:01:16;;;;;;;5.95;2.83;;;;;;;12.82;81.11;100133.29;1717553;82;21472;-82
2021/05/24 07:03:43;;;;;;;4.42;2.42;;;;;;;12.83;81.02;100136.77;1742592;81;21109;-81
2021/05/24 07:06:10;;;;;;;3.77;2.60;;;;;;;12.81;81.02;100125.48;1742603;81;20969;-81
2021/05/24 07:08:37;;;;;;;5.53;2.75;;;;;;;12.78;81.02;100126.61;1742612;81;21755;-82
2021/05/24 07:11:04;;;;;;;5.60;2.70;;;;;;;12.79;81.08;100121.66;1742003;81;21040;-80
2021/05/24 07:13:32;;;;;;;4.30;3.12;;;;;;;12.80;81.11;100115.87;1718012;83;21034;-82
2021/05/24 07:15:59;;;;;;;4.95;2.87;;;;;;;12.82;81.21;100112.58;1740200;82;21092;-79
2021/05/24 07:18:25;;;;;;;6.25;2.75;;;;;;;12.83;81.32;100112.43;1722571;83;21049;-81
2021/05/24 07:20:53;;;;;;;6.15;2.75;;;;;;;12.88;81.44;100108.04;1721441;82;21631;-80
2021/05/24 07:23:20;;;;;;;4.70;2.75;;;;;;;12.94;81.48;100110.13;1716848;82;21592;-81
2021/05/24 07:25:47;;;;;;;4.35;3.00;;;;;;;13.00;81.52;100110.86;1740925;81;21613;-79
2021/05/24 07:28:13;;;;;;;3.47;2.67;;;;;;;13.05;81.53;100120.56;1741873;81;21579;-81
2021/05/24 07:30:40;;;;;;;6.03;2.92;;;;;;;13.09;81.45;100123.26;1714153;82;21485;-80
2021/05/24 07:33:06;;;;;;;4.90;2.87;;;;;;;13.12;81.39;100127.44;1712517;82;22345;-78
2021/05/24 07:35:33;;;;;;;4.53;2.70;;;;;;;13.17;81.38;100126.03;1741554;81;21095;-76
2021/05/24 07:38:01;;;;;;;5.70;2.85;;;;;;;13.17;81.19;100130.50;1742846;80;21076;-71
2021/05/24 07:40:27;;;;;;;3.30;2.90;;;;;;;13.13;81.05;100135.27;1742931;82;21009;-74
2021/05/24 07:42:54;;;;;;;3.95;3.12;;;;;;;13.10;80.99;100123.60;1744236;80;21589;-73
2021/05/24 07:45:20;;;;;;;6.17;3.10;;;;;;;13.10;80.92;100120.11;1744586;82;22217;-71
2021/05/24 07:47:47;;;;;;;4.70;2.77;;;;;;;13.07;80.89;100108.48;1743760;80;21073;-72
2021/05/24 07:50:13;;;;;;;5.00;2.80;;;;;;;13.03;80.85;100120.38;1740484;82;21149;-80
2021/05/24 07:52:40;;;;;;;5.03;3.12;;;;;;;13.00;80.94;100129.91;1744593;82;21023;-81
2021/05/24 07:55:07;;;;;;;4.97;2.92;;;;;;;12.98;80.99;100130.06;1745970;80;21109;-76
2021/05/24 07:57:35;;;;;;;5.58;2.62;;;;;;;12.92;81.03;100125.81;1749984;80;22617;-82
2021/05/24 08:00:03;;;;;;;4.15;2.52;;;;;;;12.89;81.15;100130.42;1723791;82;21064;-79
2021/05/24 08:02:31;;;;;;;5.00;2.75;;;;;;;12.88;81.25;100126.59;1716198;82;20990;-75
2021/05/24 08:04:57;;;;;;;8.10;3.02;;;;;;;12.86;81.33;100132.05;1689563;83;20999;-75
2021/05/24 08:07:25;;;;;;;5.05;3.05;;;;;;;12.84;81.40;100130.52;1715104;83;21668;-75
2021/05/24 08:09:52;;;;;;;7.15;2.98;;;;;;;12.84;81.52;100127.38;1713960;82;22260;-76
2021/05/24 08:12:19;;;;;;;6.97;3.00;;;;;;;12.86;81.64;100136.52;1715851;83;21042;-75
2021/05/24 08:14:45;;;;;;;6.85;3.22;;;;;;;12.86;81.70;100135.19;1716034;83;21074;-75
2021/05/24 08:17:12;;;;;;;5.87;3.10;;;;;;;12.88;81.78;100133.22;1718959;83;21600;-75
2021/05/24 08:19:39;;;;;;;5.20;3.10;;;;;;;12.91;81.85;100138.23;1717613;82;20998;-75
2021/05/24 08:22:06;;;;;;;5.78;2.77;;;;;;;12.91;81.89;100144.86;1706668;83;22197;-76
2021/05/24 08:24:32;;;;;;;6.42;3.08;;;;;;;12.92;81.91;100150.50;1715961;83;21074;-76
2021/05/24 08:26:58;;;;;;;4.55;3.12;;;;;;;12.90;81.89;100147.16;1715171;83;20963;-78
2021/05/24 08:29:25;;;;;;;7.10;3.20;;;;;;;12.86;81.96;100149.77;1716019;83;21042;-75
2021/05/24 08:31:52;;;;;;;4.40;2.90;;;;;;;12.84;82.03;100149.08;1713866;83;21494;-77
2021/05/24 08:34:18;;;;;;;4.55;3.10;;;;;;;12.78;82.14;100150.95;1715507;82;21741;-77
2021/05/24 08:36:46;;;;;;;4.60;3.08;;;;;;;12.78;82.21;100157.09;1687803;83;20938;-81
2021/05/24 08:39:13;;;;;;;4.95;3.37;;;;;;;12.82;82.28;100158.96;1715838;83;21564;-76
2021/05/24 08:41:39;;;;;;;6.00;3.40;;;;;;;12.84;82.37;100162.33;1710700;83;21050;-75
2021/05/24 08:44:08;;;;;;;10.68;4.95;;;;;;;12.87;82.41;100158.06;1716777;82;21090;-75
2021/05/24 08:46:38;;;;;;;4.10;3.40;;;;;;;12.93;82.47;100161.45;1743254;80;22348;-74
2021/05/24 08:49:05;;;;;;;6.37;4.37;;;;;;;12.92;82.37;100162.92;1744077;80;20946;-77
2021/05/24 08:51:32;;;;;;;6.05;3.75;;;;;;;12.86;82.39;100168.32;1712272;83;21062;-77
2021/05/24 08:53:58;;;;;;;4.10;3.40;;;;;;;12.85;82.47;100162.67;1744464;82;21083;-77
2021/05/24 08:56:25;;;;;;;5.17;2.52;;;;;;;12.88;82.53;100169.01;1715266;82;21592;-77
2021/05/24 08:58:54;;;;;;;6.10;3.10;;;;;;;12.86;82.54;100166.99;1744528;82;22269;-76
2021/05/24 09:01:20;;;;;;;5.28;3.20;;;;;;;12.80;82.59;100176.83;1678162;84;21001;-77
2021/05/24 09:04:01;;;;;;;3.77;2.70;;;;;;;12.73;82.59;100171.73;1730976;82;20999;-75
2021/05/24 09:06:40;;;;;;;3.72;2.25;;;;;;;12.71;82.75;100185.13;1696895;83;21003;-76
2021/05/24 09:09:16;;;;;;;4.20;2.35;;;;;;;12.65;82.79;100184.38;1743998;82;21034;-77
2021/05/24 09:11:47;;;;;;;3.05;2.10;;;;;;;12.59;82.91;100185.77;1717983;83;21564;-76
2021/05/24 09:14:21;;;;;;;3.37;2.17;;;;;;;12.59;83.00;100185.77;1743573;81;21624;-77
2021/05/24 09:17:01;;;;;;;3.37;1.67;;;;;;;12.57;83.05;100182.42;1714719;83;21003;-78
2021/05/24 09:19:31;;;;;;;4.15;1.90;;;;;;;12.51;83.06;100186.94;1703249;83;21078;-81
2021/05/24 09:22:01;;;;;;;3.35;1.65;;;;;;;12.48;83.16;100187.22;1701778;83;21125;-81
2021/05/24 09:24:36;;;;;;;2.15;1.70;;;;;;;12.48;83.24;100190.36;1744430;82;21779;-81
2021/05/24 09:27:04;;;;;;;3.40;1.72;;;;;;;12.47;83.27;100195.31;1740719;82;21565;-77
2021/05/24 09:29:45;;;;;;;3.15;1.67;;;;;;;12.47;83.36;100193.98;1738907;81;21077;-78
2021/05/24 09:32:19;;;;;;;3.50;1.60;;;;;;;12.48;83.40;100203.61;1736283;81;21688;-79
2021/05/24 09:34:48;;;;;;;2.05;1.22;;;;;;;12.46;83.31;100217.48;1743935;80;27215;-78
2021/05/24 09:37:15;;;;;;;2.12;1.20;;;;;;;12.42;83.29;100216.06;1744535;82;22309;-77
2021/05/24 09:39:42;;;;;;;2.67;1.15;;;;;;;12.38;83.31;100223.95;1717158;83;21034;-79
2021/05/24 09:42:12;;;;;;;1.40;1.15;;;;;;;12.37;83.35;100220.47;1712306;82;21057;-77
2021/05/24 09:44:44;;;;;;;2.95;1.17;;;;;;;12.39;83.42;100224.30;1714946;82;21047;-78
2021/05/24 09:47:12;;;;;;;1.90;1.20;;;;;;;12.38;83.43;100231.90;1713995;82;21073;-77
2021/05/24 09:49:38;;;;;;;1.75;1.05;;;;;;;12.34;83.44;100219.39;1739079;82;21822;-81
2021/05/24 09:52:05;;;;;;;3.72;1.40;;;;;;;12.32;83.49;100230.13;1708968;84;21087;-78
2021/05/24 09:54:36;;;;;;;1.65;1.20;;;;;;;12.32;83.56;100231.45;1736195;82;21088;-79
2021/05/24 09:57:05;;;;;;;3.37;1.40;;;;;;;12.32;83.57;100225.33;1744688;80;21098;-83
2021/05/24 09:59:33;;;;;;;1.98;1.20;;;;;;;12.27;83.61;100232.37;1743893;80;21066;-78
2021/05/24 10:02:02;;;;;;;2.05;1.32;;;;;;;12.24;83.66;100231.30;1744159;81;22471;-77
2021/05/24 10:04:33;;;;;;;2.72;1.30;;;;;;;12.22;83.71;100233.25;1742107;81;21531;-79
2021/05/24 10:07:01;;;;;;;1.52;1.22;;;;;;;12.25;83.84;100232.96;1744661;81;20997;-77
2021/05/24 10:09:35;;;;;;;2.08;1.20;;;;;;;12.28;83.93;100235.84;1744839;80;21535;-79
2021/05/24 10:12:04;;;;;;;1.92;1.17;;;;;;;12.28;83.91;100234.04;1741961;80;21025;-77
2021/05/24 10:14:31;;;;;;;3.65;1.37;;;;;;;12.27;83.88;100235.50;1732603;80;21730;-78
2021/05/24 10:17:07;;;;;;;1.20;0.85;;;;;;;12.28;83.91;100245.12;1744206;82;21452;-78
2021/05/24 10:19:30;;;;;;;1.67;0.93;;;;;;;12.26;83.82;100240.45;1742696;80;21099;-77
2021/05/24 10:21:57;;;;;;;2.72;1.30;;;;;;;12.25;83.83;100244.88;1715120;80;21016;-77
2021/05/24 10:24:28;;;;;;;1.32;1.15;;;;;;;12.23;83.89;100243.34;1729136;82;21060;-79
2021/05/24 10:26:57;;;;;;;1.50;1.22;;;;;;;12.25;83.99;100244.05;1743757;82;21847;-78
2021/05/24 10:29:23;;;;;;;2.45;1.32;;;;;;;12.26;84.07;100251.88;1738396;82;21112;-80
2021/05/24 10:31:50;;;;;;;3.58;1.37;;;;;;;12.28;84.15;100261.01;1709470;82;20981;-82
2021/05/24 10:34:22;;;;;;;1.52;1.00;;;;;;;12.28;84.22;100260.52;1736700;82;20981;-79
2021/05/24 10:37:11;;;;;;;2.12;0.90;;;;;;;12.32;84.23;100270.34;1706375;83;21099;-77
2021/05/24 10:40:02;;;;;;;1.80;1.00;;;;;;;12.32;84.20;100263.23;1714794;83;20973;-77
2021/05/24 10:42:42;;;;;;;1.75;1.02;;;;;;;12.33;84.16;100278.64;1714503;83;21479;-81
2021/05/24 10:45:16;;;;;;;1.50;0.88;;;;;;;12.34;84.13;100271.04;1714789;82;21104;-80
2021/05/24 10:47:59;;;;;;;2.10;0.80;;;;;;;12.35;84.08;100271.39;1713176;83;21084;-76
2021/05/24 10:50:29;;;;;;;2.33;1.10;;;;;;;12.32;83.95;100284.42;1726698;82;21072;-77
2021/05/24 10:53:00;;;;;;;1.10;0.75;;;;;;;12.31;84.00;100281.42;1738605;80;22364;-82
2021/05/24 10:55:31;;;;;;;2.17;0.90;;;;;;;12.33;84.07;100284.77;1735074;80;21041;-81
2021/05/24 10:58:05;;;;;;;1.10;0.80;;;;;;;12.32;83.98;100287.07;1741111;80;21009;-78
2021/05/24 11:00:59;;;;;;;0.95;0.90;;;;;;;12.35;83.97;100285.12;1740642;81;21009;-76
2021/05/24 11:03:25;;;;;;;2.33;0.95;;;;;;;12.38;83.97;100297.63;1740555;81;21073;-74
2021/05/24 11:06:16;;;;;;;2.90;0.88;;;;;;;12.39;83.91;100297.97;1744482;81;21687;-74
2021/05/24 11:09:01;;;;;;;4.78;0.85;;;;;;;12.39;83.82;100301.11;1717056;82;21006;-74
2021/05/24 11:11:31;;;;;;;1.42;0.85;;;;;;;12.39;83.76;100307.73;1716072;83;20959;-76
2021/05/24 11:14:04;;;;;;;1.35;0.90;;;;;;;12.41;83.65;100300.48;1714930;82;21018;-75
2021/05/24 11:16:34;;;;;;;1.22;0.80;;;;;;;12.43;83.68;100305.98;1711981;82;21116;-74
2021/05/24 11:19:12;;;;;;;1.40;0.90;;;;;;;12.43;83.56;100301.17;1742084;80;22333;-73
2021/05/24 11:21:47;;;;;;;1.50;0.80;;;;;;;12.42;83.50;100308.29;1743603;81;20962;-73
2021/05/24 11:27:15;;;;;;;0.60;0.60;;;;;;;12.43;83.24;100315.26;1743221;80;28618;-74
2021/05/24 11:29:47;;;;;;;1.00;0.90;;;;;;;12.44;83.18;100316.09;1739935;80;21583;-73
2021/05/24 11:32:25;;;;;;;1.60;0.93;;;;;;;12.50;83.19;100315.56;1731144;80;21708;-74
2021/05/24 11:34:52;;;;;;;1.15;0.80;;;;;;;12.54;83.21;100303.22;1685930;82;21101;-74